createdAt,value
2022-09-02T03:43:00.130Z,24.70
2022-09-02T03:58:08.527Z,24.90
2022-09-02T04:13:15.454Z,24.70
2022-09-02T04:28:20.859Z,24.30
2022-09-02T04:43:26.877Z,24.40
2022-09-02T04:58:31.466Z,24.50
2022-09-02T05:13:37.273Z,24.50
2022-09-02T05:28:42.333Z,24.10
2022-09-02T05:43:48.513Z,23.90
2022-09-02T05:58:53.401Z,23.80
2022-09-02T06:13:57.898Z,24.10
2022-09-02T06:29:03.315Z,23.90
2022-09-02T06:44:09.649Z,24.10
2022-09-02T06:59:16.652Z,23.80
2022-09-02T07:14:27.867Z,24.20
2022-09-02T07:29:33.652Z,23.80
2022-09-02T07:44:38.317Z,24.00
2022-09-02T07:59:46.179Z,24.00
2022-09-02T08:14:51.988Z,23.90
2022-09-02T08:29:56.422Z,24.00
2022-09-02T08:45:09.292Z,24.00
2022-09-02T09:00:15.513Z,22.90
2022-09-02T09:15:30.835Z,22.60
2022-09-02T09:30:35.585Z,23.20
2022-09-02T09:45:41.943Z,23.70
2022-09-02T10:00:46.469Z,24.20
2022-09-02T10:16:07.094Z,24.20
2022-09-02T10:31:20.742Z,24.70
2022-09-02T10:46:26.796Z,24.30
2022-09-02T11:01:37.847Z,24.20
2022-09-02T11:16:47.460Z,24.70
2022-09-02T11:32:02.773Z,24.80
2022-09-02T11:47:36.911Z,24.80
2022-09-02T12:02:47.829Z,24.90
2022-09-02T12:18:28.576Z,25.00
2022-09-02T12:33:34.365Z,25.40
2022-09-02T12:48:43.517Z,25.40
2022-09-02T13:04:22.467Z,25.50
2022-09-02T13:19:50.291Z,25.40
2022-09-02T13:34:58.420Z,25.30
2022-09-02T13:50:03.066Z,26.80
2022-09-02T14:05:12.576Z,28.70
2022-09-02T14:20:22.143Z,31.40
2022-09-02T14:35:27.856Z,31.20
2022-09-02T14:50:36.531Z,33.90
2022-09-02T15:05:41.344Z,32.00
2022-09-02T15:20:45.890Z,30.30
2022-09-02T15:35:50.496Z,31.00
2022-09-02T15:50:54.966Z,34.50
2022-09-02T16:06:04.886Z,33.70
2022-09-02T16:21:11.419Z,30.70
2022-09-02T16:36:15.884Z,30.40
2022-09-02T16:51:20.227Z,32.00
2022-09-02T17:06:24.613Z,31.80
2022-09-02T17:21:32.261Z,29.80
2022-09-02T17:36:39.218Z,28.80
2022-09-02T17:51:43.669Z,28.40
2022-09-02T18:06:51.361Z,27.70
2022-09-02T18:22:06.846Z,27.30
2022-09-02T18:37:24.004Z,27.10
2022-09-02T18:52:29.811Z,26.90
2022-09-02T19:07:52.324Z,26.70
2022-09-02T19:22:58.252Z,26.30
2022-09-02T19:38:02.903Z,26.20
2022-09-02T19:53:07.485Z,25.60
2022-09-02T20:08:11.876Z,25.40
2022-09-02T20:23:18.528Z,25.60
2022-09-02T20:38:39.917Z,25.60
2022-09-02T20:54:02.176Z,25.10
2022-09-02T21:09:15.246Z,25.30
2022-09-02T21:24:28.082Z,25.50
2022-09-02T21:39:37.115Z,25.30
2022-09-02T21:54:58.855Z,25.00
2022-09-02T22:10:13.442Z,25.00
2022-09-02T22:25:17.916Z,25.20
2022-09-02T22:40:25.101Z,25.00
2022-09-02T22:55:42.548Z,24.70
2022-09-02T23:10:53.415Z,24.90
2022-09-02T23:26:09.452Z,25.10
2022-09-02T23:41:14.964Z,25.00
2022-09-02T23:56:33.643Z,24.90
